sensor_id;sensor_type;location;lat;lon;timestamp;pressure;altitude;pressure_sealevel;temperature;humidity
34124;BME280;13153;52.316;21.166;2023-08-31T00:02:18;99429.31;;;23.52;59.00
34124;BME280;13153;52.316;21.166;2023-08-31T00:04:44;99424.94;;;23.49;58.99
34124;BME280;13153;52.316;21.166;2023-08-31T00:07:10;99431.31;;;23.47;58.79
34124;BME280;13153;52.316;21.166;2023-08-31T00:09:36;99438.63;;;23.43;58.96
34124;BME280;13153;52.316;21.166;2023-08-31T00:12:02;99428.81;;;23.42;58.98
34124;BME280;13153;52.316;21.166;2023-08-31T00:14:29;99427.06;;;23.41;58.94
34124;BME280;13153;52.316;21.166;2023-08-31T00:16:55;99432.44;;;23.41;59.08
34124;BME280;13153;52.316;21.166;2023-08-31T00:19:23;99431.50;;;23.42;58.91
34124;BME280;13153;52.316;21.166;2023-08-31T00:21:49;99432.50;;;23.39;58.95
34124;BME280;13153;52.316;21.166;2023-08-31T00:24:15;99429.00;;;23.37;59.40
34124;BME280;13153;52.316;21.166;2023-08-31T00:26:40;99434.38;;;23.37;59.21
34124;BME280;13153;52.316;21.166;2023-08-31T00:29:09;99430.88;;;23.35;59.03
34124;BME280;13153;52.316;21.166;2023-08-31T00:31:37;99425.44;;;23.37;58.94
34124;BME280;13153;52.316;21.166;2023-08-31T00:34:03;99438.94;;;23.35;58.99
34124;BME280;13153;52.316;21.166;2023-08-31T00:36:33;99429.13;;;23.34;59.27
34124;BME280;13153;52.316;21.166;2023-08-31T00:39:05;99432.63;;;23.36;59.17
34124;BME280;13153;52.316;21.166;2023-08-31T00:41:32;99423.69;;;23.36;58.87
34124;BME280;13153;52.316;21.166;2023-08-31T00:43:58;99423.69;;;23.36;58.79
34124;BME280;13153;52.316;21.166;2023-08-31T00:46:24;99424.63;;;23.35;58.63
34124;BME280;13153;52.316;21.166;2023-08-31T00:48:54;99425.44;;;23.37;58.90
34124;BME280;13153;52.316;21.166;2023-08-31T00:51:20;99432.63;;;23.36;59.07
34124;BME280;13153;52.316;21.166;2023-08-31T00:53:47;99431.81;;;23.34;58.51
34124;BME280;13153;52.316;21.166;2023-08-31T00:56:14;99424.69;;;23.33;58.59
34124;BME280;13153;52.316;21.166;2023-08-31T00:58:39;99425.69;;;23.31;58.67
34124;BME280;13153;52.316;21.166;2023-08-31T01:01:20;99417.59;;;23.32;58.76
34124;BME280;13153;52.316;21.166;2023-08-31T01:10:06;99429.56;;;23.24;58.72
34124;BME280;13153;52.316;21.166;2023-08-31T01:12:52;99431.31;;;23.25;58.63
34124;BME280;13153;52.316;21.166;2023-08-31T01:15:21;99439.44;;;23.23;58.86
34124;BME280;13153;52.316;21.166;2023-08-31T01:17:50;99439.50;;;23.22;58.65
34124;BME280;13153;52.316;21.166;2023-08-31T01:23:02;99443.09;;;23.21;58.78
34124;BME280;13153;52.316;21.166;2023-08-31T01:25:32;99443.09;;;23.21;58.58
34124;BME280;13153;52.316;21.166;2023-08-31T01:27:59;99435.06;;;23.21;58.50
34124;BME280;13153;52.316;21.166;2023-08-31T01:30:29;99439.53;;;23.20;58.48
34124;BME280;13153;52.316;21.166;2023-08-31T01:32:55;99444.03;;;23.20;58.05
34124;BME280;13153;52.316;21.166;2023-08-31T01:35:21;99443.16;;;23.19;57.89
34124;BME280;13153;52.316;21.166;2023-08-31T01:38:01;99440.53;;;23.18;58.44
34124;BME280;13153;52.316;21.166;2023-08-31T01:40:54;99446.84;;;23.17;57.98
34124;BME280;13153;52.316;21.166;2023-08-31T01:43:22;99445.16;;;23.14;58.13
34124;BME280;13153;52.316;21.166;2023-08-31T01:45:49;99442.53;;;23.13;58.08
34124;BME280;13153;52.316;21.166;2023-08-31T01:48:15;99434.53;;;23.11;57.91
34124;BME280;13153;52.316;21.166;2023-08-31T01:50:41;99437.31;;;23.10;58.37
34124;BME280;13153;52.316;21.166;2023-08-31T01:53:07;99438.25;;;23.09;57.85
34124;BME280;13153;52.316;21.166;2023-08-31T01:55:33;99439.31;;;23.04;58.13
34124;BME280;13153;52.316;21.166;2023-08-31T01:57:59;99437.63;;;23.02;58.46
34124;BME280;13153;52.316;21.166;2023-08-31T02:00:25;99443.00;;;23.02;58.41
34124;BME280;13153;52.316;21.166;2023-08-31T02:02:52;99440.31;;;23.02;58.26
34124;BME280;13153;52.316;21.166;2023-08-31T02:05:17;99441.19;;;23.02;58.13
34124;BME280;13153;52.316;21.166;2023-08-31T02:07:43;99448.59;;;22.96;58.30
34124;BME280;13153;52.316;21.166;2023-08-31T02:10:09;99446.78;;;22.96;58.49
34124;BME280;13153;52.316;21.166;2023-08-31T02:12:35;99443.06;;;23.00;58.43
34124;BME280;13153;52.316;21.166;2023-08-31T02:15:05;99443.06;;;23.00;58.12
34124;BME280;13153;52.316;21.166;2023-08-31T02:17:31;99451.16;;;22.99;58.07
34124;BME280;13153;52.316;21.166;2023-08-31T02:19:57;99453.84;;;22.99;57.93
34124;BME280;13153;52.316;21.166;2023-08-31T02:22:23;99440.66;;;22.93;58.44
34124;BME280;13153;52.316;21.166;2023-08-31T02:24:49;99447.72;;;22.95;58.31
34124;BME280;13153;52.316;21.166;2023-08-31T02:27:14;99446.91;;;22.93;58.47
34124;BME280;13153;52.316;21.166;2023-08-31T02:29:40;99453.16;;;22.94;57.93
34124;BME280;13153;52.316;21.166;2023-08-31T02:32:07;99455.06;;;22.90;58.11
34124;BME280;13153;52.316;21.166;2023-08-31T02:34:33;99458.63;;;22.91;57.80
34124;BME280;13153;52.316;21.166;2023-08-31T02:36:59;99455.06;;;22.90;57.99
34124;BME280;13153;52.316;21.166;2023-08-31T02:39:24;99452.31;;;22.92;57.67
34124;BME280;13153;52.316;21.166;2023-08-31T02:41:50;99454.13;;;22.91;58.08
34124;BME280;13153;52.316;21.166;2023-08-31T02:44:16;99451.44;;;22.91;57.79
34124;BME280;13153;52.316;21.166;2023-08-31T02:46:41;99461.31;;;22.91;57.90
34124;BME280;13153;52.316;21.166;2023-08-31T02:49:07;99459.63;;;22.88;58.20
34124;BME280;13153;52.316;21.166;2023-08-31T02:51:33;99457.06;;;22.85;58.02
34124;BME280;13153;52.316;21.166;2023-08-31T02:53:59;99451.69;;;22.85;57.86
34124;BME280;13153;52.316;21.166;2023-08-31T02:56:25;99458.00;;;22.84;58.15
34124;BME280;13153;52.316;21.166;2023-08-31T02:58:51;99461.50;;;22.86;58.16
34124;BME280;13153;52.316;21.166;2023-08-31T03:01:16;99458.03;;;22.83;58.21
34124;BME280;13153;52.316;21.166;2023-08-31T03:03:42;99462.53;;;22.82;58.35
34124;BME280;13153;52.316;21.166;2023-08-31T03:06:09;99462.53;;;22.82;57.96
34124;BME280;13153;52.316;21.166;2023-08-31T03:08:36;99468.78;;;22.83;58.27
34124;BME280;13153;52.316;21.166;2023-08-31T03:11:04;99466.97;;;22.83;58.07
34124;BME280;13153;52.316;21.166;2023-08-31T03:13:33;99476.88;;;22.81;58.10
34124;BME280;13153;52.316;21.166;2023-08-31T03:16:00;99476.94;;;22.80;58.06
34124;BME280;13153;52.316;21.166;2023-08-31T03:18:26;99482.25;;;22.81;58.04
34124;BME280;13153;52.316;21.166;2023-08-31T03:20:54;99483.19;;;22.80;57.96
34124;BME280;13153;52.316;21.166;2023-08-31T03:23:20;99485.00;;;22.80;58.22
34124;BME280;13153;52.316;21.166;2023-08-31T03:25:46;99486.78;;;22.79;57.95
34124;BME280;13153;52.316;21.166;2023-08-31T03:28:12;99474.28;;;22.78;57.97
34124;BME280;13153;52.316;21.166;2023-08-31T03:30:38;99484.13;;;22.79;57.87
34124;BME280;13153;52.316;21.166;2023-08-31T03:33:04;99476.06;;;22.79;57.57
34124;BME280;13153;52.316;21.166;2023-08-31T03:35:32;99478.75;;;22.79;57.60
34124;BME280;13153;52.316;21.166;2023-08-31T03:37:58;99474.28;;;22.78;58.06
34124;BME280;13153;52.316;21.166;2023-08-31T03:40:24;99477.91;;;22.77;57.54
34124;BME280;13153;52.316;21.166;2023-08-31T03:42:50;99476.16;;;22.76;57.66
34124;BME280;13153;52.316;21.166;2023-08-31T03:45:16;99476.09;;;22.78;57.82
34124;BME280;13153;52.316;21.166;2023-08-31T03:47:42;99484.13;;;22.79;57.58
34124;BME280;13153;52.316;21.166;2023-08-31T03:50:08;99491.28;;;22.79;57.45
34124;BME280;13153;52.316;21.166;2023-08-31T03:52:37;99485.00;;;22.78;57.50
34124;BME280;13153;52.316;21.166;2023-08-31T03:55:03;99489.56;;;22.76;57.76
34124;BME280;13153;52.316;21.166;2023-08-31T03:57:28;99498.53;;;22.75;57.80
34124;BME280;13153;52.316;21.166;2023-08-31T03:59:54;99489.56;;;22.76;57.79
34124;BME280;13153;52.316;21.166;2023-08-31T04:02:20;99497.59;;;22.76;57.69
34124;BME280;13153;52.316;21.166;2023-08-31T04:04:45;99502.09;;;22.76;57.64
34124;BME280;13153;52.316;21.166;2023-08-31T04:07:11;99503.06;;;22.73;58.11
34124;BME280;13153;52.316;21.166;2023-08-31T04:09:37;99502.16;;;22.74;57.82
34124;BME280;13153;52.316;21.166;2023-08-31T04:12:03;99502.09;;;22.76;57.95
34124;BME280;13153;52.316;21.166;2023-08-31T04:14:29;99494.09;;;22.74;58.05
34124;BME280;13153;52.316;21.166;2023-08-31T04:16:55;99503.06;;;22.73;57.92
34124;BME280;13153;52.316;21.166;2023-08-31T04:19:21;99500.47;;;22.71;58.07
34124;BME280;13153;52.316;21.166;2023-08-31T04:21:48;99488.03;;;22.69;58.25
34124;BME280;13153;52.316;21.166;2023-08-31T04:24:13;99490.78;;;22.67;58.39
34124;BME280;13153;52.316;21.166;2023-08-31T04:26:39;99490.72;;;22.69;58.51
34124;BME280;13153;52.316;21.166;2023-08-31T04:29:05;99484.41;;;22.70;58.53
34124;BME280;13153;52.316;21.166;2023-08-31T04:31:34;99488.69;;;22.76;58.49
34124;BME280;13153;52.316;21.166;2023-08-31T04:34:00;99497.66;;;22.74;58.23
34124;BME280;13153;52.316;21.166;2023-08-31T04:36:26;99506.69;;;22.72;58.62
34124;BME280;13153;52.316;21.166;2023-08-31T04:38:52;99502.25;;;22.71;58.44
34124;BME280;13153;52.316;21.166;2023-08-31T04:41:18;99504.00;;;22.72;58.41
34124;BME280;13153;52.316;21.166;2023-08-31T04:43:44;99513.81;;;22.73;58.49
34124;BME280;13153;52.316;21.166;2023-08-31T04:46:13;99518.19;;;22.76;58.33
34124;BME280;13153;52.316;21.166;2023-08-31T04:48:39;99518.19;;;22.76;58.38
34124;BME280;13153;52.316;21.166;2023-08-31T04:51:05;99508.44;;;22.73;58.04
34124;BME280;13153;52.316;21.166;2023-08-31T04:53:31;99513.69;;;22.76;58.40
34124;BME280;13153;52.316;21.166;2023-08-31T04:55:58;99518.13;;;22.77;58.46
34124;BME280;13153;52.316;21.166;2023-08-31T04:58:23;99520.78;;;22.79;58.34
34124;BME280;13153;52.316;21.166;2023-08-31T05:00:51;99529.72;;;22.79;58.17
34124;BME280;13153;52.316;21.166;2023-08-31T05:03:17;99528.78;;;22.80;57.73
34124;BME280;13153;52.316;21.166;2023-08-31T05:05:43;99535.00;;;22.81;57.38
34124;BME280;13153;52.316;21.166;2023-08-31T05:08:09;99536.81;;;22.80;57.68
34124;BME280;13153;52.316;21.166;2023-08-31T05:10:35;99541.19;;;22.83;57.51
34124;BME280;13153;52.316;21.166;2023-08-31T05:13:01;99544.69;;;22.85;56.97
34124;BME280;13153;52.316;21.166;2023-08-31T05:15:27;99549.13;;;22.86;56.88
34124;BME280;13153;52.316;21.166;2023-08-31T05:17:54;99547.28;;;22.88;57.15
34124;BME280;13153;52.316;21.166;2023-08-31T05:20:20;99557.00;;;22.90;57.13
34124;BME280;13153;52.316;21.166;2023-08-31T05:22:48;99557.78;;;22.94;56.56
34124;BME280;13153;52.316;21.166;2023-08-31T05:25:14;99555.91;;;22.96;56.56
34124;BME280;13153;52.316;21.166;2023-08-31T05:27:39;99556.56;;;23.02;56.64
34124;BME280;13153;52.316;21.166;2023-08-31T05:30:06;99551.03;;;23.07;56.59
34124;BME280;13153;52.316;21.166;2023-08-31T05:32:32;99555.13;;;23.16;56.47
34124;BME280;13153;52.316;21.166;2023-08-31T05:34:58;99556.53;;;23.26;56.36
34124;BME280;13153;52.316;21.166;2023-08-31T05:37:25;99558.44;;;23.46;55.66
34124;BME280;13153;52.316;21.166;2023-08-31T05:39:51;99551.88;;;23.76;55.00
34124;BME280;13153;52.316;21.166;2023-08-31T05:42:17;99551.09;;;24.16;54.00
34124;BME280;13153;52.316;21.166;2023-08-31T05:44:44;99549.19;;;24.60;53.18
34124;BME280;13153;52.316;21.166;2023-08-31T05:47:10;99561.81;;;24.99;51.87
34124;BME280;13153;52.316;21.166;2023-08-31T05:49:36;99552.00;;;25.17;52.04
34124;BME280;13153;52.316;21.166;2023-08-31T05:52:01;99564.63;;;25.35;50.72
34124;BME280;13153;52.316;21.166;2023-08-31T05:54:27;99568.44;;;25.48;49.91
34124;BME280;13153;52.316;21.166;2023-08-31T05:56:53;99565.75;;;25.48;49.56
34124;BME280;13153;52.316;21.166;2023-08-31T05:59:19;99572.56;;;25.38;49.22
34124;BME280;13153;52.316;21.166;2023-08-31T06:01:45;99571.53;;;25.22;49.47
34124;BME280;13153;52.316;21.166;2023-08-31T06:04:11;99579.72;;;25.00;50.56
34124;BME280;13153;52.316;21.166;2023-08-31T06:06:37;99577.91;;;24.80;50.87
34124;BME280;13153;52.316;21.166;2023-08-31T06:09:03;99587.59;;;24.64;50.84
34124;BME280;13153;52.316;21.166;2023-08-31T06:11:30;99594.56;;;24.48;51.17
34124;BME280;13153;52.316;21.166;2023-08-31T06:13:55;99583.47;;;24.35;51.17
34124;BME280;13153;52.316;21.166;2023-08-31T06:16:21;99580.31;;;24.25;52.00
34124;BME280;13153;52.316;21.166;2023-08-31T06:18:49;99587.84;;;24.16;51.84
34124;BME280;13153;52.316;21.166;2023-08-31T06:21:15;99596.09;;;24.11;52.23
34124;BME280;13153;52.316;21.166;2023-08-31T06:23:41;99590.06;;;24.06;51.79
34124;BME280;13153;52.316;21.166;2023-08-31T06:26:06;99599.88;;;24.07;51.97
34124;BME280;13153;52.316;21.166;2023-08-31T06:28:32;99596.19;;;24.10;52.08
34124;BME280;13153;52.316;21.166;2023-08-31T06:30:58;99597.06;;;24.10;52.61
34124;BME280;13153;52.316;21.166;2023-08-31T06:33:23;99594.50;;;24.07;52.77
34124;BME280;13153;52.316;21.166;2023-08-31T06:35:49;99586.63;;;24.02;52.45
34124;BME280;13153;52.316;21.166;2023-08-31T06:38:20;99599.19;;;24.02;52.60
34124;BME280;13153;52.316;21.166;2023-08-31T06:40:47;99596.69;;;23.97;52.73
34124;BME280;13153;52.316;21.166;2023-08-31T06:43:12;99599.50;;;23.94;53.03
34124;BME280;13153;52.316;21.166;2023-08-31T06:45:38;99602.41;;;23.88;52.90
34124;BME280;13153;52.316;21.166;2023-08-31T06:48:04;99612.41;;;23.85;52.90
34124;BME280;13153;52.316;21.166;2023-08-31T06:50:30;99607.09;;;23.83;52.99
34124;BME280;13153;52.316;21.166;2023-08-31T06:52:56;99612.28;;;23.88;52.71
34124;BME280;13153;52.316;21.166;2023-08-31T06:55:22;99612.97;;;23.93;52.71
34124;BME280;13153;52.316;21.166;2023-08-31T06:57:48;99616.13;;;24.04;52.93
34124;BME280;13153;52.316;21.166;2023-08-31T07:00:14;99618.41;;;24.35;52.15
34124;BME280;13153;52.316;21.166;2023-08-31T07:02:40;99615.13;;;24.89;50.99
34124;BME280;13153;52.316;21.166;2023-08-31T07:05:07;99617.66;;;25.72;49.19
34124;BME280;13153;52.316;21.166;2023-08-31T07:07:34;99613.56;;;26.54;47.09
34124;BME280;13153;52.316;21.166;2023-08-31T07:10:00;99622.25;;;27.44;44.84
34124;BME280;13153;52.316;21.166;2023-08-31T07:12:25;99617.59;;;27.95;43.71
34124;BME280;13153;52.316;21.166;2023-08-31T07:14:51;99620.56;;;28.68;43.03
34124;BME280;13153;52.316;21.166;2023-08-31T07:17:20;99622.66;;;28.92;41.60
34124;BME280;13153;52.316;21.166;2023-08-31T07:19:46;99625.88;;;28.85;41.56
34124;BME280;13153;52.316;21.166;2023-08-31T07:22:12;99627.13;;;28.64;41.00
34124;BME280;13153;52.316;21.166;2023-08-31T07:24:38;99634.59;;;28.44;41.23
34124;BME280;13153;52.316;21.166;2023-08-31T07:27:05;99630.38;;;28.24;42.03
34124;BME280;13153;52.316;21.166;2023-08-31T07:29:31;99631.31;;;28.08;42.20
34124;BME280;13153;52.316;21.166;2023-08-31T07:31:57;99636.00;;;27.88;42.35
34124;BME280;13153;52.316;21.166;2023-08-31T07:34:23;99634.28;;;27.72;42.72
34124;BME280;13153;52.316;21.166;2023-08-31T07:36:49;99642.47;;;27.70;42.73
34124;BME280;13153;52.316;21.166;2023-08-31T07:39:16;99639.06;;;27.82;43.11
34124;BME280;13153;52.316;21.166;2023-08-31T07:41:43;99637.16;;;28.00;42.10
34124;BME280;13153;52.316;21.166;2023-08-31T07:44:09;99636.84;;;28.22;42.22
34124;BME280;13153;52.316;21.166;2023-08-31T07:46:35;99638.50;;;28.24;41.27
34124;BME280;13153;52.316;21.166;2023-08-31T07:49:01;99644.28;;;28.33;41.61
34124;BME280;13153;52.316;21.166;2023-08-31T07:51:28;99647.75;;;28.50;42.09
34124;BME280;13153;52.316;21.166;2023-08-31T07:53:54;99655.38;;;28.44;41.84
34124;BME280;13153;52.316;21.166;2023-08-31T07:56:19;99656.06;;;28.47;41.70
34124;BME280;13153;52.316;21.166;2023-08-31T07:58:45;99656.47;;;28.55;41.17
34124;BME280;13153;52.316;21.166;2023-08-31T08:01:11;99649.75;;;28.63;41.66
34124;BME280;13153;52.316;21.166;2023-08-31T08:03:37;99658.66;;;28.65;41.16
34124;BME280;13153;52.316;21.166;2023-08-31T08:06:02;99660.31;;;28.67;41.71
34124;BME280;13153;52.316;21.166;2023-08-31T08:08:29;99665.78;;;28.81;41.57
34124;BME280;13153;52.316;21.166;2023-08-31T08:10:55;99663.63;;;29.16;41.20
34124;BME280;13153;52.316;21.166;2023-08-31T08:13:21;99662.06;;;29.42;40.58
34124;BME280;13153;52.316;21.166;2023-08-31T08:15:47;99666.09;;;29.64;39.75
34124;BME280;13153;52.316;21.166;2023-08-31T08:18:13;99655.75;;;29.70;39.12
34124;BME280;13153;52.316;21.166;2023-08-31T08:20:39;99663.28;;;29.79;38.74
34124;BME280;13153;52.316;21.166;2023-08-31T08:23:05;99666.78;;;29.81;37.55
34124;BME280;13153;52.316;21.166;2023-08-31T08:25:32;99665.69;;;29.98;38.32
34124;BME280;13153;52.316;21.166;2023-08-31T08:27:58;99665.16;;;30.20;38.75
34124;BME280;13153;52.316;21.166;2023-08-31T08:30:24;99669.13;;;30.29;37.56
34124;BME280;13153;52.316;21.166;2023-08-31T08:32:49;99669.31;;;30.26;37.38
34124;BME280;13153;52.316;21.166;2023-08-31T08:35:15;99674.66;;;30.27;37.41
34124;BME280;13153;52.316;21.166;2023-08-31T08:37:41;99674.19;;;30.20;37.32
34124;BME280;13153;52.316;21.166;2023-08-31T08:40:07;99674.69;;;30.13;36.76
34124;BME280;13153;52.316;21.166;2023-08-31T08:42:41;99674.44;;;30.03;36.87
34124;BME280;13153;52.316;21.166;2023-08-31T08:45:13;99678.22;;;30.01;37.69
34124;BME280;13153;52.316;21.166;2023-08-31T08:47:46;99673.44;;;30.04;37.41
34124;BME280;13153;52.316;21.166;2023-08-31T08:50:13;99673.81;;;29.98;36.61
34124;BME280;13153;52.316;21.166;2023-08-31T08:52:42;99681.97;;;29.98;37.34
34124;BME280;13153;52.316;21.166;2023-08-31T08:55:09;99679.09;;;30.01;37.18
34124;BME280;13153;52.316;21.166;2023-08-31T08:57:35;99681.81;;;30.01;37.43
34124;BME280;13153;52.316;21.166;2023-08-31T09:00:02;99687.13;;;29.88;37.44
34124;BME280;13153;52.316;21.166;2023-08-31T09:02:29;99688.66;;;29.78;37.67
34124;BME280;13153;52.316;21.166;2023-08-31T09:04:55;99682.09;;;29.82;37.62
34124;BME280;13153;52.316;21.166;2023-08-31T09:07:21;99688.09;;;29.87;37.50
34124;BME280;13153;52.316;21.166;2023-08-31T09:09:54;99691.75;;;29.86;37.02
34124;BME280;13153;52.316;21.166;2023-08-31T09:12:24;99681.97;;;29.98;37.30
34124;BME280;13153;52.316;21.166;2023-08-31T09:15:04;99690.97;;;30.13;37.23
34124;BME280;13153;52.316;21.166;2023-08-31T09:17:42;99684.59;;;30.41;36.40
34124;BME280;13153;52.316;21.166;2023-08-31T09:20:10;99691.94;;;30.53;36.06
34124;BME280;13153;52.316;21.166;2023-08-31T09:22:36;99682.66;;;30.70;36.18
34124;BME280;13153;52.316;21.166;2023-08-31T09:25:02;99689.72;;;30.72;35.32
34124;BME280;13153;52.316;21.166;2023-08-31T09:27:29;99693.63;;;30.68;35.65
34124;BME280;13153;52.316;21.166;2023-08-31T09:29:56;99689.06;;;30.69;34.56
34124;BME280;13153;52.316;21.166;2023-08-31T09:32:23;99692.84;;;30.66;35.00
34124;BME280;13153;52.316;21.166;2023-08-31T09:34:49;99697.75;;;30.61;35.28
34124;BME280;13153;52.316;21.166;2023-08-31T09:37:18;99699.59;;;30.46;35.28
34124;BME280;13153;52.316;21.166;2023-08-31T09:39:44;99704.22;;;30.32;35.46
34124;BME280;13153;52.316;21.166;2023-08-31T09:42:10;99710.81;;;30.28;35.50
34124;BME280;13153;52.316;21.166;2023-08-31T09:44:43;99707.03;;;30.30;35.86
34124;BME280;13153;52.316;21.166;2023-08-31T09:47:09;99705.84;;;30.34;36.34
34124;BME280;13153;52.316;21.166;2023-08-31T09:49:36;99707.38;;;30.38;35.96
34124;BME280;13153;52.316;21.166;2023-08-31T09:52:05;99714.19;;;30.31;35.50
34124;BME280;13153;52.316;21.166;2023-08-31T09:54:34;99707.41;;;30.24;35.46
34124;BME280;13153;52.316;21.166;2023-08-31T09:57:02;99717.78;;;30.32;36.31
34124;BME280;13153;52.316;21.166;2023-08-31T09:59:31;99714.56;;;30.39;35.03
34124;BME280;13153;52.316;21.166;2023-08-31T10:01:57;99722.97;;;30.49;36.01
34124;BME280;13153;52.316;21.166;2023-08-31T10:04:24;99716.09;;;30.43;35.43
34124;BME280;13153;52.316;21.166;2023-08-31T10:06:51;99719.72;;;30.30;35.74
34124;BME280;13153;52.316;21.166;2023-08-31T10:09:18;99725.94;;;30.17;35.86
34124;BME280;13153;52.316;21.166;2023-08-31T10:11:45;99729.69;;;30.02;36.25
34124;BME280;13153;52.316;21.166;2023-08-31T10:14:13;99736.13;;;29.85;36.85
34124;BME280;13153;52.316;21.166;2023-08-31T10:16:44;99730.63;;;29.73;36.67
34124;BME280;13153;52.316;21.166;2023-08-31T10:19:10;99735.25;;;29.71;36.38
34124;BME280;13153;52.316;21.166;2023-08-31T10:21:36;99732.06;;;29.78;35.65
34124;BME280;13153;52.316;21.166;2023-08-31T10:24:03;99720.16;;;29.81;35.18
34124;BME280;13153;52.316;21.166;2023-08-31T10:26:31;99729.66;;;29.74;35.35
34124;BME280;13153;52.316;21.166;2023-08-31T10:28:59;99729.34;;;29.78;35.87
34124;BME280;13153;52.316;21.166;2023-08-31T10:31:29;99720.44;;;29.76;35.42
34124;BME280;13153;52.316;21.166;2023-08-31T10:34:06;99727.81;;;29.74;35.30
34124;BME280;13153;52.316;21.166;2023-08-31T10:36:45;99726.03;;;29.59;34.58
34124;BME280;13153;52.316;21.166;2023-08-31T10:39:18;99725.28;;;29.43;35.05
34124;BME280;13153;52.316;21.166;2023-08-31T10:41:55;99714.75;;;29.22;35.51
34124;BME280;13153;52.316;21.166;2023-08-31T10:44:22;99726.16;;;29.13;36.04
34124;BME280;13153;52.316;21.166;2023-08-31T10:46:50;99729.50;;;29.03;35.95
34124;BME280;13153;52.316;21.166;2023-08-31T10:49:23;99730.03;;;28.93;36.32
34124;BME280;13153;52.316;21.166;2023-08-31T10:52:14;99726.31;;;28.80;36.12
34124;BME280;13153;52.316;21.166;2023-08-31T10:54:40;99736.13;;;28.67;36.00
34124;BME280;13153;52.316;21.166;2023-08-31T10:57:06;99735.50;;;28.62;36.56
34124;BME280;13153;52.316;21.166;2023-08-31T11:07:42;99747.28;;;28.77;36.99
34124;BME280;13153;52.316;21.166;2023-08-31T11:10:45;99737.00;;;28.83;37.45
34124;BME280;13153;52.316;21.166;2023-08-31T11:13:00;99744.56;;;28.92;37.18
34124;BME280;13153;52.316;21.166;2023-08-31T11:15:27;99744.19;;;28.99;37.48
34124;BME280;13153;52.316;21.166;2023-08-31T11:17:56;99739.66;;;28.99;37.13
34124;BME280;13153;52.316;21.166;2023-08-31T11:20:23;99743.41;;;28.97;37.55
34124;BME280;13153;52.316;21.166;2023-08-31T11:22:54;99738.59;;;29.02;37.63
34124;BME280;13153;52.316;21.166;2023-08-31T11:25:20;99743.63;;;29.08;37.57
34124;BME280;13153;52.316;21.166;2023-08-31T11:27:58;99737.84;;;29.14;37.22
34124;BME280;13153;52.316;21.166;2023-08-31T11:30:30;99735.06;;;29.15;37.46
34124;BME280;13153;52.316;21.166;2023-08-31T11:33:06;99734.47;;;29.10;37.30
34124;BME280;13153;52.316;21.166;2023-08-31T11:35:38;99735.25;;;29.12;37.63
34124;BME280;13153;52.316;21.166;2023-08-31T11:38:07;99739.69;;;29.13;37.19
34124;BME280;13153;52.316;21.166;2023-08-31T11:40:33;99741.34;;;29.16;37.37
34124;BME280;13153;52.316;21.166;2023-08-31T11:42:59;99741.94;;;29.21;36.96
34124;BME280;13153;52.316;21.166;2023-08-31T11:45:36;99745.44;;;29.23;36.86
34124;BME280;13153;52.316;21.166;2023-08-31T11:48:05;99743.09;;;29.17;37.02
34124;BME280;13153;52.316;21.166;2023-08-31T11:50:31;99743.81;;;29.05;36.83
34124;BME280;13153;52.316;21.166;2023-08-31T11:52:57;99751.53;;;28.97;37.11
34124;BME280;13153;52.316;21.166;2023-08-31T11:55:23;99749.78;;;28.96;37.89
34124;BME280;13153;52.316;21.166;2023-08-31T11:57:54;99746.13;;;28.97;37.98
34124;BME280;13153;52.316;21.166;2023-08-31T12:00:21;99744.19;;;28.99;36.83
34124;BME280;13153;52.316;21.166;2023-08-31T12:02:58;99744.97;;;29.01;36.98
34124;BME280;13153;52.316;21.166;2023-08-31T12:05:24;99742.09;;;29.04;38.14
34124;BME280;13153;52.316;21.166;2023-08-31T12:07:53;99738.78;;;28.99;36.64
34124;BME280;13153;52.316;21.166;2023-08-31T12:10:20;99738.44;;;28.89;36.78
34124;BME280;13153;52.316;21.166;2023-08-31T12:12:46;99735.25;;;28.82;36.97
34124;BME280;13153;52.316;21.166;2023-08-31T12:15:11;99723.78;;;28.77;36.71
34124;BME280;13153;52.316;21.166;2023-08-31T12:17:38;99725.22;;;28.84;36.68
34124;BME280;13153;52.316;21.166;2023-08-31T12:20:09;99722.50;;;28.84;36.15
34124;BME280;13153;52.316;21.166;2023-08-31T12:22:35;99727.03;;;28.84;36.51
34124;BME280;13153;52.316;21.166;2023-08-31T12:25:01;99722.81;;;28.78;37.12
34124;BME280;13153;52.316;21.166;2023-08-31T12:27:27;99723.09;;;28.74;37.71
34124;BME280;13153;52.316;21.166;2023-08-31T12:29:53;99716.38;;;28.65;38.02
34124;BME280;13153;52.316;21.166;2023-08-31T12:32:19;99712.47;;;28.55;37.74
34124;BME280;13153;52.316;21.166;2023-08-31T12:34:44;99715.53;;;28.49;38.13
34124;BME280;13153;52.316;21.166;2023-08-31T12:37:10;99716.47;;;28.48;38.80
34124;BME280;13153;52.316;21.166;2023-08-31T12:39:36;99713.88;;;28.46;38.62
34124;BME280;13153;52.316;21.166;2023-08-31T12:42:03;99720.41;;;28.42;38.49
34124;BME280;13153;52.316;21.166;2023-08-31T12:44:30;99716.13;;;28.38;39.49
34124;BME280;13153;52.316;21.166;2023-08-31T12:46:56;99717.34;;;28.33;39.05
34124;BME280;13153;52.316;21.166;2023-08-31T12:49:22;99708.50;;;28.31;39.15
34124;BME280;13153;52.316;21.166;2023-08-31T12:51:48;99708.56;;;28.29;39.44
34124;BME280;13153;52.316;21.166;2023-08-31T12:54:16;99705.50;;;28.35;39.81
34124;BME280;13153;52.316;21.166;2023-08-31T12:56:42;99710.81;;;28.37;38.25
34124;BME280;13153;52.316;21.166;2023-08-31T12:59:07;99703.25;;;28.27;37.58
34124;BME280;13153;52.316;21.166;2023-08-31T13:01:33;99700.69;;;28.09;37.50
34124;BME280;13153;52.316;21.166;2023-08-31T13:03:59;99696.03;;;27.95;36.99
34124;BME280;13153;52.316;21.166;2023-08-31T13:06:28;99705.13;;;27.94;37.56
34124;BME280;13153;52.316;21.166;2023-08-31T13:08:54;99703.91;;;28.00;38.65